Terminal Aerodrome Forecast
Issued by NWS Buffalo, NY

Home | Current Version | Previous Version | Text Only | Print | Product List | Glossary On
Versions: 1 2 3 4 5 6 7 8 9 10 11 12 13 14 15 16 17 18 19 20 21 22 23 24 25
883
FTUS41 KBUF 212102 AAA
TAFART
TAF AMD
KART 212102Z 2121/2218 23006KT P6SM FEW050 FEW070
     FM212300 21008KT P6SM SKC
     FM220600 17006KT P6SM SCT200
     FM221300 20010KT P6SM BKN080
     FM221600 21014G22KT P6SM VCSH BKN040=

USA.gov is the U.S. government's official web portal to all federal, state and local government web resources and services.